createdAt,value
2023-05-15T00:00:45.297Z,14.90
2023-05-15T00:03:12.266Z,14.60
2023-05-15T00:05:39.387Z,15.23
2023-05-15T00:08:06.021Z,15.95
2023-05-15T00:10:32.430Z,15.02
2023-05-15T00:12:58.816Z,14.43
2023-05-15T00:15:25.687Z,13.73
2023-05-15T00:17:52.361Z,14.50
2023-05-15T00:20:18.954Z,14.95
2023-05-15T00:22:45.503Z,16.15
2023-05-15T00:25:11.881Z,14.25
2023-05-15T00:27:38.295Z,15.20
2023-05-15T00:30:05.750Z,16.27
2023-05-15T00:32:32.693Z,15.50
2023-05-15T00:34:59.208Z,16.50
2023-05-15T00:37:25.801Z,15.05
2023-05-15T00:39:52.236Z,15.93
2023-05-15T00:42:19.281Z,15.05
2023-05-15T00:44:47.216Z,17.13
2023-05-15T00:47:14.248Z,16.42
2023-05-15T00:49:41.562Z,15.32
2023-05-15T00:52:08.552Z,15.45
2023-05-15T00:54:35.422Z,16.20
2023-05-15T00:57:05.796Z,15.32
2023-05-15T00:59:32.674Z,16.23
2023-05-15T01:01:59.236Z,16.98
2023-05-15T01:04:25.824Z,16.73
2023-05-15T01:06:55.113Z,16.40
2023-05-15T01:09:24.736Z,16.85
2023-05-15T01:11:54.443Z,16.08
2023-05-15T01:14:21.056Z,16.90
2023-05-15T01:16:48.012Z,16.25
2023-05-15T01:19:15.001Z,16.23
2023-05-15T01:22:20.766Z,17.42
2023-05-15T01:25:06.202Z,16.25
2023-05-15T01:27:48.951Z,17.42
2023-05-15T01:30:15.318Z,16.48
2023-05-15T01:32:54.368Z,16.40
2023-05-15T01:35:45.166Z,17.10
2023-05-15T01:38:34.437Z,18.15
2023-05-15T01:41:24.048Z,17.33
2023-05-15T01:44:08.370Z,17.60
2023-05-15T01:46:39.265Z,17.60
2023-05-15T01:49:10.796Z,18.40
2023-05-15T01:51:39.234Z,17.52
2023-05-15T01:54:08.836Z,17.45
2023-05-15T01:56:36.469Z,16.80
2023-05-15T01:59:05.335Z,18.27
2023-05-15T02:01:32.886Z,15.80
2023-05-15T02:04:01.490Z,16.83
2023-05-15T02:06:31.475Z,15.45
2023-05-15T02:08:59.302Z,16.90
2023-05-15T02:11:25.862Z,16.83
2023-05-15T02:13:54.724Z,16.38
2023-05-15T02:16:21.491Z,16.35
2023-05-15T02:18:48.841Z,16.83
2023-05-15T02:21:15.970Z,17.38
2023-05-15T02:23:42.495Z,16.15
2023-05-15T02:26:30.763Z,17.38
2023-05-15T02:29:25.713Z,16.88
2023-05-15T02:32:17.306Z,18.25
2023-05-15T02:34:58.732Z,16.98
2023-05-15T02:37:28.750Z,18.20
2023-05-15T02:39:59.803Z,18.50
2023-05-15T02:42:30.949Z,17.92
2023-05-15T02:44:58.264Z,17.60
2023-05-15T02:47:25.426Z,17.95
2023-05-15T02:49:52.881Z,16.90
2023-05-15T02:52:19.882Z,18.30
2023-05-15T02:54:46.323Z,17.08
2023-05-15T02:57:13.134Z,16.58
2023-05-15T02:59:39.605Z,17.65
2023-05-15T03:02:06.056Z,17.95
2023-05-15T03:04:32.702Z,17.75
2023-05-15T03:06:59.139Z,17.02
2023-05-15T03:09:25.617Z,18.10
2023-05-15T03:11:52.112Z,17.10
2023-05-15T03:14:18.672Z,17.33
2023-05-15T03:16:45.498Z,16.70
2023-05-15T03:19:12.051Z,18.25
2023-05-15T03:21:38.537Z,17.58
2023-05-15T03:24:05.262Z,18.30
2023-05-15T03:26:31.703Z,17.15
2023-05-15T03:28:58.508Z,19.23
2023-05-15T03:31:25.135Z,17.65
2023-05-15T03:33:51.679Z,17.88
2023-05-15T03:36:18.073Z,18.90
2023-05-15T03:38:44.835Z,20.10
2023-05-15T03:41:11.254Z,19.45
2023-05-15T03:43:37.712Z,19.30
2023-05-15T03:46:04.865Z,17.75
2023-05-15T03:48:31.312Z,18.17
2023-05-15T03:50:57.838Z,20.33
2023-05-15T03:53:24.879Z,19.83
2023-05-15T03:55:52.545Z,19.90
2023-05-15T03:58:19.122Z,20.50
2023-05-15T04:00:45.770Z,21.85
2023-05-15T04:03:12.728Z,20.52
2023-05-15T04:05:39.393Z,20.55
2023-05-15T04:08:06.037Z,20.10
2023-05-15T04:10:33.625Z,18.33
2023-05-15T04:13:00.160Z,18.00
2023-05-15T04:15:29.155Z,20.10
2023-05-15T04:17:55.867Z,21.63
2023-05-15T04:20:24.116Z,22.77
2023-05-15T04:22:52.035Z,23.08
2023-05-15T04:25:20.079Z,21.05
2023-05-15T04:27:46.955Z,21.02
2023-05-15T04:30:13.996Z,20.35
2023-05-15T04:32:41.103Z,20.83
2023-05-15T04:35:10.449Z,19.73
2023-05-15T04:37:40.501Z,20.63
2023-05-15T04:40:08.330Z,19.20
2023-05-15T04:42:36.784Z,17.90
2023-05-15T04:45:06.092Z,18.38
2023-05-15T04:47:32.557Z,19.65
2023-05-15T04:49:59.035Z,18.85
2023-05-15T04:52:25.434Z,20.08
2023-05-15T04:54:52.958Z,20.58
2023-05-15T04:57:19.446Z,20.20
2023-05-15T04:59:45.842Z,19.08
2023-05-15T05:02:12.282Z,19.25
2023-05-15T05:04:38.774Z,18.67
2023-05-15T05:07:05.819Z,19.38
2023-05-15T05:09:32.262Z,19.65
2023-05-15T05:11:59.885Z,19.85
2023-05-15T05:14:26.696Z,19.20
2023-05-15T05:16:53.085Z,18.75
2023-05-15T05:19:19.667Z,19.95
2023-05-15T05:21:46.073Z,20.25
2023-05-15T05:24:12.434Z,19.23
2023-05-15T05:26:39.121Z,19.63
2023-05-15T05:29:05.591Z,19.20
2023-05-15T05:31:32.095Z,18.00
2023-05-15T05:33:58.498Z,19.55
2023-05-15T05:36:24.881Z,18.17
2023-05-15T05:38:51.339Z,20.45
2023-05-15T05:41:17.724Z,19.20
2023-05-15T05:43:44.268Z,19.35
2023-05-15T05:46:10.990Z,17.83
2023-05-15T05:48:37.407Z,20.33
2023-05-15T05:51:04.018Z,21.70
2023-05-15T05:53:30.531Z,20.05
2023-05-15T05:55:57.167Z,17.45
2023-05-15T05:58:25.956Z,18.80
2023-05-15T06:00:53.537Z,17.95
2023-05-15T06:03:20.812Z,18.08
2023-05-15T06:05:48.484Z,18.98
2023-05-15T06:08:15.123Z,17.83
2023-05-15T06:10:42.288Z,18.00
2023-05-15T06:13:08.823Z,18.73
2023-05-15T06:15:35.612Z,16.83
2023-05-15T06:18:02.270Z,18.25
2023-05-15T06:20:28.882Z,17.05
2023-05-15T06:22:55.325Z,19.40
2023-05-15T06:25:21.864Z,19.05
2023-05-15T06:27:48.233Z,18.00
2023-05-15T06:30:15.031Z,17.70
2023-05-15T06:32:41.914Z,19.45
2023-05-15T06:35:09.878Z,19.13
2023-05-15T06:37:36.598Z,21.00
2023-05-15T06:40:06.465Z,19.73
2023-05-15T06:42:33.130Z,19.70
2023-05-15T06:45:00.580Z,17.92
2023-05-15T06:47:27.127Z,18.63
2023-05-15T06:49:54.670Z,18.42
2023-05-15T06:52:21.156Z,18.65
2023-05-15T06:54:48.306Z,20.88
2023-05-15T06:57:15.019Z,19.23
2023-05-15T06:59:41.411Z,21.15
2023-05-15T07:02:07.832Z,18.88
2023-05-15T07:04:34.336Z,18.52
2023-05-15T07:07:00.895Z,20.98
2023-05-15T07:09:27.283Z,19.52
2023-05-15T07:11:53.671Z,19.88
2023-05-15T07:14:20.189Z,19.77
2023-05-15T07:16:47.191Z,18.83
2023-05-15T07:19:13.798Z,16.35
2023-05-15T07:21:40.431Z,17.75
2023-05-15T07:24:07.240Z,18.90
2023-05-15T07:26:40.714Z,17.63
2023-05-15T07:29:13.494Z,16.13
2023-05-15T07:31:40.956Z,19.13
2023-05-15T07:34:07.521Z,16.85
2023-05-15T07:36:34.635Z,16.73
2023-05-15T07:39:01.009Z,16.00
2023-05-15T07:41:27.647Z,17.08
2023-05-15T07:43:54.022Z,17.23
2023-05-15T07:46:20.581Z,17.42
2023-05-15T07:48:47.007Z,16.17
2023-05-15T07:51:13.770Z,17.33
2023-05-15T07:53:40.171Z,17.65
2023-05-15T07:56:06.808Z,16.77
2023-05-15T07:58:35.422Z,15.55
2023-05-15T08:01:01.866Z,15.45
2023-05-15T08:03:28.487Z,15.07
2023-05-15T08:05:54.937Z,15.52
2023-05-15T08:08:21.497Z,17.45
2023-05-15T08:10:48.353Z,20.10
2023-05-15T08:13:14.724Z,17.25
2023-05-15T08:15:41.154Z,18.23
2023-05-15T08:18:11.526Z,15.50
2023-05-15T08:20:38.998Z,14.18
2023-05-15T08:23:05.517Z,15.48
2023-05-15T08:25:32.106Z,15.57
2023-05-15T08:27:58.491Z,17.17
2023-05-15T08:30:25.037Z,14.95
2023-05-15T08:32:51.497Z,16.58
2023-05-15T08:35:18.451Z,14.82
2023-05-15T08:37:44.902Z,13.82
2023-05-15T08:40:12.133Z,13.27
2023-05-15T08:42:55.432Z,14.52
2023-05-15T08:45:22.569Z,14.30
2023-05-15T08:47:49.460Z,12.23
2023-05-15T08:50:17.199Z,12.40
2023-05-15T08:52:48.484Z,13.50
2023-05-15T08:55:15.684Z,12.50
2023-05-15T08:57:43.853Z,13.50
2023-05-15T09:00:14.812Z,13.25
2023-05-15T09:02:42.680Z,12.75
2023-05-15T09:05:10.226Z,13.23
2023-05-15T09:07:38.966Z,12.02
2023-05-15T09:10:06.722Z,13.77
2023-05-15T09:12:34.686Z,13.85
2023-05-15T09:15:17.517Z,12.98
2023-05-15T09:17:45.376Z,12.37
2023-05-15T09:20:35.314Z,13.45
2023-05-15T09:23:04.731Z,12.10
2023-05-15T09:25:38.739Z,11.55
2023-05-15T09:28:06.711Z,12.18
2023-05-15T09:30:34.675Z,11.20
2023-05-15T09:33:04.294Z,11.00
2023-05-15T09:35:34.999Z,12.10
2023-05-15T09:38:02.420Z,11.32
2023-05-15T09:40:31.023Z,11.57
2023-05-15T09:42:58.609Z,11.73
2023-05-15T09:45:27.296Z,11.65
2023-05-15T09:47:54.241Z,11.27
2023-05-15T09:50:23.088Z,11.27
2023-05-15T09:52:51.588Z,9.02
2023-05-15T09:55:19.896Z,9.18
2023-05-15T09:58:06.666Z,10.57
2023-05-15T10:00:35.224Z,9.52
2023-05-15T10:03:03.572Z,10.25
2023-05-15T10:05:42.352Z,8.43
2023-05-15T10:08:10.000Z,9.35
2023-05-15T10:10:36.469Z,9.40
2023-05-15T10:13:04.606Z,8.98
2023-05-15T10:15:31.689Z,8.65
2023-05-15T10:17:59.570Z,7.80
2023-05-15T10:20:26.790Z,9.10
2023-05-15T10:22:55.869Z,10.98
2023-05-15T10:25:44.001Z,11.48
2023-05-15T10:28:11.772Z,11.13
2023-05-15T10:30:39.125Z,11.13
2023-05-15T10:33:07.155Z,10.05
2023-05-15T10:35:39.442Z,11.07
2023-05-15T10:38:06.394Z,12.68
2023-05-15T10:40:36.495Z,10.60
2023-05-15T10:43:03.615Z,8.63
2023-05-15T10:45:31.861Z,7.18
2023-05-15T10:47:59.488Z,8.48
2023-05-15T10:50:26.917Z,8.80
2023-05-15T10:52:55.205Z,8.80
2023-05-15T10:55:22.788Z,7.28
2023-05-15T10:57:49.853Z,6.85
2023-05-15T11:00:22.506Z,6.50
2023-05-15T11:02:50.930Z,10.48
2023-05-15T11:05:17.490Z,11.35
2023-05-15T11:07:44.155Z,10.27
2023-05-15T11:10:28.731Z,10.02
2023-05-15T11:12:56.898Z,10.27
2023-05-15T11:15:23.393Z,8.23
2023-05-15T11:18:05.938Z,8.30
2023-05-15T11:20:40.274Z,10.38
2023-05-15T11:23:07.377Z,9.50
2023-05-15T11:25:35.404Z,8.57
2023-05-15T11:28:03.424Z,10.73
2023-05-15T11:30:40.332Z,9.07
2023-05-15T11:33:10.303Z,8.10
2023-05-15T11:35:43.204Z,4.80
2023-05-15T11:38:09.625Z,5.10
2023-05-15T11:40:49.083Z,4.93
2023-05-15T11:43:27.409Z,5.20
2023-05-15T11:46:08.623Z,5.03
2023-05-15T11:48:41.536Z,6.63
2023-05-15T11:51:24.949Z,5.15
2023-05-15T11:53:54.449Z,4.97
2023-05-15T11:56:23.185Z,5.60
2023-05-15T11:58:55.617Z,5.63
2023-05-15T12:01:22.081Z,4.50
2023-05-15T12:03:49.693Z,4.68
2023-05-15T12:06:16.903Z,5.10
2023-05-15T12:08:43.801Z,5.95
2023-05-15T12:11:10.949Z,5.38
2023-05-15T12:13:37.446Z,5.38
2023-05-15T12:16:04.784Z,6.03
2023-05-15T12:18:32.917Z,6.07
2023-05-15T12:21:00.089Z,7.18
2023-05-15T12:23:28.424Z,7.20
2023-05-15T12:26:00.888Z,8.20
2023-05-15T12:28:28.954Z,8.07
2023-05-15T12:30:55.837Z,8.15
2023-05-15T12:33:23.311Z,7.47
2023-05-15T12:35:54.369Z,5.68
2023-05-15T12:38:22.669Z,5.78
2023-05-15T12:40:53.445Z,6.35
2023-05-15T12:43:20.961Z,5.47
2023-05-15T12:45:52.377Z,9.15
2023-05-15T12:48:18.832Z,8.32
2023-05-15T12:50:45.390Z,8.43
2023-05-15T12:53:15.349Z,11.63
2023-05-15T12:55:44.404Z,7.40
2023-05-15T12:58:12.700Z,7.53
2023-05-15T13:00:41.639Z,7.97
2023-05-15T13:03:10.520Z,11.10
2023-05-15T13:05:38.160Z,10.13
2023-05-15T13:08:07.286Z,10.13
2023-05-15T13:10:36.276Z,8.38
2023-05-15T13:13:02.802Z,6.40
2023-05-15T13:15:31.718Z,7.10
2023-05-15T13:18:01.989Z,6.90
2023-05-15T13:20:32.796Z,8.93
2023-05-15T13:23:01.197Z,7.53
2023-05-15T13:25:29.233Z,6.35
2023-05-15T13:27:59.441Z,6.72
2023-05-15T13:30:26.249Z,6.07
2023-05-15T13:32:55.454Z,4.93
2023-05-15T13:35:22.407Z,6.88
2023-05-15T13:37:48.856Z,6.55
2023-05-15T13:40:15.442Z,5.05
2023-05-15T13:42:42.961Z,6.32
2023-05-15T13:45:11.984Z,5.75
2023-05-15T13:47:41.686Z,8.23
2023-05-15T13:50:12.693Z,8.02
2023-05-15T13:52:40.393Z,5.95
2023-05-15T13:55:09.696Z,8.10
2023-05-15T13:57:40.894Z,9.65
2023-05-15T14:00:12.170Z,8.63
2023-05-15T14:02:43.069Z,6.80
2023-05-15T14:05:11.174Z,5.97
2023-05-15T14:07:37.917Z,5.70
2023-05-15T14:10:04.909Z,9.13
2023-05-15T14:12:32.284Z,12.23
2023-05-15T14:14:58.916Z,6.60
2023-05-15T14:17:25.459Z,13.10
2023-05-15T14:19:52.087Z,8.85
2023-05-15T14:22:18.697Z,8.00
2023-05-15T14:24:45.248Z,8.05
2023-05-15T14:27:11.741Z,8.10
2023-05-15T14:29:39.331Z,8.63
2023-05-15T14:32:06.539Z,9.48
2023-05-15T14:34:33.819Z,8.70
2023-05-15T14:37:00.236Z,9.55
2023-05-15T14:39:26.973Z,12.50
2023-05-15T14:41:53.474Z,11.88
2023-05-15T14:44:19.854Z,7.63
2023-05-15T14:46:46.412Z,7.47
2023-05-15T14:49:12.908Z,10.30
2023-05-15T14:51:39.759Z,8.30
2023-05-15T14:54:06.240Z,8.85
2023-05-15T14:56:32.793Z,11.85
2023-05-15T14:58:59.254Z,11.20
2023-05-15T15:01:25.791Z,10.43
2023-05-15T15:03:52.752Z,13.73
2023-05-15T15:06:19.440Z,16.40
2023-05-15T15:08:45.835Z,13.45
2023-05-15T15:11:12.237Z,18.92
2023-05-15T15:13:38.602Z,20.02
2023-05-15T15:16:05.512Z,16.88
2023-05-15T15:18:32.028Z,16.20
2023-05-15T15:20:58.614Z,16.67
2023-05-15T15:23:25.351Z,13.68
2023-05-15T15:25:52.111Z,16.10
2023-05-15T15:28:18.518Z,15.65
2023-05-15T15:30:44.930Z,14.75
2023-05-15T15:33:11.488Z,15.02
2023-05-15T15:35:37.945Z,14.38
2023-05-15T15:38:05.296Z,13.48
2023-05-15T15:40:31.746Z,12.57
2023-05-15T15:42:58.143Z,15.02
2023-05-15T15:45:24.719Z,17.05
2023-05-15T15:47:51.229Z,16.52
2023-05-15T15:50:17.751Z,14.15
2023-05-15T15:52:44.169Z,13.13
2023-05-15T15:55:10.791Z,12.45
2023-05-15T15:57:37.587Z,15.55
2023-05-15T16:00:06.818Z,12.35
2023-05-15T16:02:33.484Z,12.45
2023-05-15T16:05:00.392Z,13.80
2023-05-15T16:07:26.810Z,12.43
2023-05-15T16:10:00.373Z,11.88
2023-05-15T16:12:30.483Z,11.57
2023-05-15T16:15:00.186Z,10.82
2023-05-15T16:17:30.727Z,12.15
2023-05-15T16:19:57.131Z,12.45
2023-05-15T16:22:23.561Z,11.75
2023-05-15T16:24:50.398Z,11.90
2023-05-15T16:27:16.775Z,17.70
2023-05-15T16:29:43.172Z,17.02
2023-05-15T16:32:10.018Z,15.20
2023-05-15T16:34:36.525Z,15.60
2023-05-15T16:37:03.548Z,14.57
2023-05-15T16:39:32.141Z,15.20
2023-05-15T16:41:58.602Z,19.58
2023-05-15T16:44:25.074Z,19.67
2023-05-15T16:46:51.569Z,16.85
2023-05-15T16:49:18.182Z,17.60
2023-05-15T16:51:45.049Z,14.30
2023-05-15T16:54:11.831Z,12.45
2023-05-15T16:56:38.729Z,13.30
2023-05-15T16:59:05.452Z,11.35
2023-05-15T17:01:32.035Z,10.10
2023-05-15T17:03:59.035Z,10.38
2023-05-15T17:06:25.478Z,10.48
2023-05-15T17:08:51.842Z,10.15
2023-05-15T17:11:18.305Z,9.18
2023-05-15T17:13:44.840Z,8.85
2023-05-15T17:16:11.323Z,9.40
2023-05-15T17:18:39.739Z,10.23
2023-05-15T17:21:06.422Z,9.90
2023-05-15T17:23:32.967Z,10.70
2023-05-15T17:25:59.489Z,9.98
2023-05-15T17:28:26.195Z,9.73
2023-05-15T17:30:52.630Z,10.38
2023-05-15T17:33:19.013Z,8.60
2023-05-15T17:35:45.644Z,9.35
2023-05-15T17:38:12.055Z,9.50
2023-05-15T17:40:38.556Z,10.05
2023-05-15T17:43:05.041Z,9.75
2023-05-15T17:45:32.148Z,9.45
2023-05-15T17:48:03.488Z,9.90
2023-05-15T17:50:30.287Z,10.35
2023-05-15T17:52:56.812Z,10.27
2023-05-15T17:55:23.255Z,9.20
2023-05-15T17:57:50.369Z,9.80
2023-05-15T18:00:17.538Z,8.15
2023-05-15T18:02:43.988Z,8.30
2023-05-15T18:05:10.520Z,7.85
2023-05-15T18:07:37.081Z,8.18
2023-05-15T18:10:03.808Z,7.75
2023-05-15T18:12:30.188Z,7.47
2023-05-15T18:14:57.236Z,6.70
2023-05-15T18:17:23.713Z,7.85
2023-05-15T18:19:50.202Z,7.70
2023-05-15T18:22:16.678Z,6.38
2023-05-15T18:24:43.109Z,7.35
2023-05-15T18:27:10.474Z,6.60
2023-05-15T18:29:36.864Z,5.70
2023-05-15T18:32:03.322Z,5.80
2023-05-15T18:34:29.734Z,5.57
2023-05-15T18:36:56.132Z,5.13
2023-05-15T18:39:22.664Z,5.00
2023-05-15T18:41:49.066Z,4.53
2023-05-15T18:44:15.603Z,5.22
2023-05-15T18:46:42.404Z,5.25
2023-05-15T18:49:09.239Z,5.18
2023-05-15T18:51:35.623Z,4.93
2023-05-15T18:54:02.593Z,4.97
2023-05-15T18:56:29.068Z,4.80
2023-05-15T18:58:55.534Z,4.78
2023-05-15T19:01:22.151Z,4.95
2023-05-15T19:03:48.673Z,4.25
2023-05-15T19:06:19.785Z,3.83
2023-05-15T19:08:47.974Z,4.50
2023-05-15T19:11:15.991Z,4.72
2023-05-15T19:13:42.426Z,4.28
2023-05-15T19:16:10.123Z,4.18
2023-05-15T19:18:36.581Z,4.22
2023-05-15T19:21:04.630Z,4.20
2023-05-15T19:23:31.024Z,4.70
2023-05-15T19:25:57.494Z,4.45
2023-05-15T19:28:23.948Z,4.35
2023-05-15T19:30:50.838Z,4.13
2023-05-15T19:33:17.789Z,4.50
2023-05-15T19:35:44.557Z,4.53
2023-05-15T19:38:11.338Z,4.35
2023-05-15T19:40:37.741Z,4.90
2023-05-15T19:43:04.548Z,4.30
2023-05-15T19:45:30.971Z,5.43
2023-05-15T19:47:58.840Z,4.10
2023-05-15T19:50:25.714Z,3.78
2023-05-15T19:52:52.199Z,4.40
2023-05-15T19:55:18.575Z,4.55
2023-05-15T19:57:45.121Z,3.97
2023-05-15T20:00:12.393Z,4.10
2023-05-15T20:02:41.108Z,4.07
2023-05-15T20:05:08.608Z,4.40
2023-05-15T20:07:35.506Z,4.43
2023-05-15T20:10:01.958Z,4.00
2023-05-15T20:12:28.313Z,4.53
2023-05-15T20:14:54.736Z,4.72
2023-05-15T20:17:21.176Z,4.20
2023-05-15T20:19:49.329Z,4.70
2023-05-15T20:22:17.177Z,4.65
2023-05-15T20:24:44.155Z,4.40
2023-05-15T20:27:11.382Z,4.78
2023-05-15T20:29:38.756Z,4.63
2023-05-15T20:32:05.625Z,5.00
2023-05-15T20:34:32.938Z,5.32
2023-05-15T20:36:59.319Z,4.70
2023-05-15T20:39:25.965Z,5.25
2023-05-15T20:41:52.408Z,5.25
2023-05-15T20:44:18.807Z,5.63
2023-05-15T20:46:45.470Z,5.80
2023-05-15T20:49:11.916Z,5.53
2023-05-15T20:51:38.286Z,5.45
2023-05-15T20:54:04.742Z,4.95
2023-05-15T20:56:31.140Z,5.50
2023-05-15T20:58:59.618Z,5.90
2023-05-15T21:01:26.438Z,6.47
2023-05-15T21:03:52.949Z,6.35
2023-05-15T21:06:20.124Z,5.38
2023-05-15T21:08:46.494Z,6.10
2023-05-15T21:11:13.360Z,5.80
2023-05-15T21:13:39.795Z,6.00
2023-05-15T21:16:06.457Z,5.47
2023-05-15T21:18:32.959Z,5.47
2023-05-15T21:20:59.358Z,5.72
2023-05-15T21:23:25.715Z,6.13
2023-05-15T21:25:53.064Z,6.07
2023-05-15T21:28:20.250Z,5.53
2023-05-15T21:30:46.682Z,5.53
2023-05-15T21:33:13.099Z,5.25
2023-05-15T21:35:39.714Z,5.70
2023-05-15T21:38:06.582Z,5.25
2023-05-15T21:40:32.989Z,5.70
2023-05-15T21:42:59.361Z,4.82
2023-05-15T21:45:26.231Z,4.75
2023-05-15T21:47:53.118Z,4.43
2023-05-15T21:50:19.596Z,4.50
2023-05-15T21:52:45.974Z,5.30
2023-05-15T21:55:12.418Z,4.55
2023-05-15T21:57:38.788Z,3.80
2023-05-15T22:00:07.353Z,3.47
2023-05-15T22:02:35.004Z,3.55
2023-05-15T22:05:02.072Z,3.92
2023-05-15T22:07:28.466Z,4.45
2023-05-15T22:09:54.855Z,3.20
2023-05-15T22:12:21.522Z,3.40
2023-05-15T22:14:58.330Z,3.65
2023-05-15T22:17:27.352Z,3.63
2023-05-15T22:19:54.018Z,3.35
2023-05-15T22:22:20.765Z,3.65
2023-05-15T22:24:47.772Z,3.33
2023-05-15T22:27:16.476Z,3.28
2023-05-15T22:29:42.882Z,3.55
2023-05-15T22:32:09.415Z,3.60
2023-05-15T22:34:35.992Z,3.45
2023-05-15T22:37:02.479Z,3.67
2023-05-15T22:39:28.890Z,3.13
2023-05-15T22:41:55.725Z,3.60
2023-05-15T22:44:22.848Z,4.05
2023-05-15T22:46:49.646Z,3.85
2023-05-15T22:49:19.200Z,3.80
2023-05-15T22:51:45.690Z,3.58
2023-05-15T22:54:12.604Z,4.53
2023-05-15T22:56:38.996Z,3.88
2023-05-15T22:59:05.532Z,3.53
2023-05-15T23:01:32.123Z,3.08
2023-05-15T23:03:58.634Z,4.32
2023-05-15T23:06:25.342Z,5.05
2023-05-15T23:08:51.788Z,5.85
2023-05-15T23:11:18.297Z,5.88
2023-05-15T23:13:44.746Z,7.00
2023-05-15T23:16:11.585Z,6.13
2023-05-15T23:18:38.053Z,6.82
2023-05-15T23:21:04.856Z,6.15
2023-05-15T23:23:31.392Z,5.55
2023-05-15T23:25:57.811Z,6.05
2023-05-15T23:28:24.198Z,6.90
2023-05-15T23:30:54.836Z,6.75
2023-05-15T23:33:22.233Z,6.05
2023-05-15T23:35:48.614Z,6.05
2023-05-15T23:38:15.071Z,7.15
2023-05-15T23:40:41.608Z,6.72
2023-05-15T23:43:08.299Z,6.43
2023-05-15T23:45:35.137Z,5.18
2023-05-15T23:48:01.594Z,4.70
2023-05-15T23:50:28.532Z,3.78
2023-05-15T23:52:55.137Z,3.50
2023-05-15T23:55:21.535Z,2.80
2023-05-15T23:57:48.271Z,2.60
